Terminal Aerodrome Forecast
Issued by NWS Houston/Galveston, TX

Home | Current Version | Previous Version | Text Only | Print | Product List | Glossary On
Versions: 1 2 3 4 5 6 7 8 9 10 11 12 13 14 15 16 17 18 19 20 21 22 23 24 25 26 27 28 29 30 31 32 33 34
190
FTUS44 KHGX 192111 AAA
TAFGLS
TAF AMD
KGLS 192111Z 1921/2018 09012KT P6SM VCTS SCT035CB BKN045 OVC090
     FM200000 11013KT P6SM OVC015
     FM200300 11010KT 5SM BR OVC008
     FM200600 14013KT 4SM BR OVC005
     FM201500 16009KT 4SM BR OVC007=

USA.gov is the U.S. government's official web portal to all federal, state and local government web resources and services.